Time;durP1;ratioP1;P1;durP2;ratioP2;P2;SDS_P1;SDS_P2;PMS_P1;PMS_P2;Temp;Humidity;BMP_temperature;BMP_pressure;BME280_temperature;BME280_humidity;BME280_pressure;Samples;Min_cycle;Max_cycle;Signal;HPM_P1;HPM_P2
2022/01/03 00:00:22;;;;;;;9.60;4.80;;;9.60;99.90;;;;;;4973143;28;20780;-62
2022/01/03 00:02:52;;;;;;;6.10;3.53;;;9.50;99.90;;;;;;4973081;28;20631;-61
2022/01/03 00:05:25;;;;;;;9.20;3.73;;;9.50;99.90;;;;;;4970916;28;20389;-62
2022/01/03 00:07:55;;;;;;;5.90;3.03;;;9.50;99.90;;;;;;4972890;28;20259;-61
2022/01/03 00:10:25;;;;;;;8.10;2.83;;;9.50;99.90;;;;;;4972780;28;20235;-61
2022/01/03 00:12:56;;;;;;;5.63;2.30;;;9.40;99.90;;;;;;4973110;28;20239;-62
2022/01/03 00:15:24;;;;;;;4.50;2.00;;;9.40;99.90;;;;;;4972054;28;20238;-62
2022/01/03 00:17:53;;;;;;;3.63;1.70;;;9.40;99.90;;;;;;4972654;28;20241;-62
2022/01/03 00:20:25;;;;;;;5.20;1.67;;;9.40;99.90;;;;;;4958907;28;20281;-61
2022/01/03 00:22:58;;;;;;;2.53;1.37;;;9.30;99.90;;;;;;4972906;28;20262;-61
2022/01/03 00:25:27;;;;;;;4.13;1.40;;;9.30;99.90;;;;;;4971755;28;20699;-62
2022/01/03 00:28:03;;;;;;;1.77;1.10;;;9.30;99.90;;;;;;4972575;28;20602;-61
2022/01/03 00:30:37;;;;;;;3.13;1.10;;;9.20;99.90;;;;;;4961203;28;20250;-61
2022/01/03 00:33:07;;;;;;;4.27;1.00;;;9.20;99.90;;;;;;4959853;28;20246;-61
2022/01/03 00:35:38;;;;;;;2.07;0.70;;;9.20;99.90;;;;;;962035;28;10002227;-62
2022/01/03 00:38:09;;;;;;;2.20;0.90;;;9.20;99.90;;;;;;4968450;28;20239;-62
2022/01/03 00:40:39;;;;;;;3.57;0.80;;;9.20;99.90;;;;;;4958336;28;20230;-61
2022/01/03 00:43:07;;;;;;;2.93;0.80;;;9.20;99.90;;;;;;4972277;28;20234;-62
2022/01/03 00:45:35;;;;;;;1.27;0.60;;;9.10;99.90;;;;;;4971317;28;20603;-62
2022/01/03 00:48:07;;;;;;;2.10;0.80;;;9.10;99.90;;;;;;4971184;28;20278;-62
2022/01/03 00:50:36;;;;;;;2.40;0.93;;;9.10;99.90;;;;;;4967553;28;20651;-62
2022/01/03 00:53:05;;;;;;;2.47;0.73;;;9.10;99.90;;;;;;4972311;28;20243;-61
2022/01/03 00:55:34;;;;;;;2.53;0.90;;;9.10;99.90;;;;;;4971738;28;20231;-62
2022/01/03 00:58:06;;;;;;;3.47;1.00;;;9.10;99.90;;;;;;4971497;28;20232;-62
2022/01/03 01:00:42;;;;;;;4.00;0.80;;;9.10;99.90;;;;;;4964525;28;20714;-61
2022/01/03 01:03:15;;;;;;;3.67;0.90;;;9.10;99.90;;;;;;4970608;28;20239;-62
2022/01/03 01:05:49;;;;;;;2.93;1.07;;;9.00;99.90;;;;;;4971042;28;20711;-62
2022/01/03 01:08:19;;;;;;;4.00;0.90;;;9.00;99.90;;;;;;4959005;28;20246;-62
2022/01/03 01:10:50;;;;;;;2.77;1.00;;;9.00;99.90;;;;;;4970123;28;20706;-63
2022/01/03 01:13:22;;;;;;;3.90;1.20;;;9.00;99.90;;;;;;4971915;28;20250;-62
2022/01/03 01:15:52;;;;;;;2.10;1.13;;;9.00;99.90;;;;;;4971835;28;20238;-62
2022/01/03 01:18:24;;;;;;;3.07;1.27;;;9.00;99.90;;;;;;4971256;28;20663;-62
2022/01/03 01:20:56;;;;;;;4.60;1.50;;;9.00;99.90;;;;;;4970316;28;20230;-62
2022/01/03 01:23:25;;;;;;;3.83;1.70;;;9.00;99.90;;;;;;4970734;28;20242;-63
2022/01/03 01:28:41;;;;;;;4.77;2.10;;;8.90;99.90;;;;;;4969547;28;20242;-62
2022/01/03 01:31:20;;;;;;;4.30;2.30;;;8.90;99.90;;;;;;4971448;28;20262;-61
2022/01/03 01:33:53;;;;;;;5.23;2.03;;;8.90;99.90;;;;;;4970347;28;20242;-62
2022/01/03 01:36:28;;;;;;;3.77;2.10;;;8.90;99.90;;;;;;4970181;28;20232;-62
2022/01/03 01:39:08;;;;;;;3.10;2.13;;;8.90;99.90;;;;;;4969947;28;20234;-61
2022/01/03 01:41:44;;;;;;;3.67;2.20;;;8.80;99.90;;;;;;4964666;28;20235;-61
2022/01/03 01:44:14;;;;;;;4.63;2.17;;;8.80;99.90;;;;;;4970471;28;20230;-62
2022/01/03 01:46:48;;;;;;;2.20;2.00;;;8.70;99.90;;;;;;4969625;28;20318;-62
2022/01/03 01:49:19;;;;;;;5.10;2.70;;;8.70;99.90;;;;;;4970828;28;20721;-62
2022/01/03 01:51:58;;;;;;;4.17;2.20;;;8.70;99.90;;;;;;4968526;28;20334;-61
2022/01/03 01:54:31;;;;;;;7.93;2.20;;;8.70;99.90;;;;;;4952080;28;20289;-62
2022/01/03 01:57:17;;;;;;;2.70;1.50;;;8.60;99.90;;;;;;4969571;28;20245;-63
2022/01/03 02:00:02;;;;;;;4.50;1.57;;;8.60;99.90;;;;;;4970251;28;20231;-62
2022/01/03 02:02:47;;;;;;;1.97;1.20;;;8.60;99.90;;;;;;4964707;28;20234;-62
2022/01/03 02:05:24;;;;;;;4.23;1.70;;;8.50;99.90;;;;;;4973804;28;20246;-62
2022/01/03 02:08:13;;;;;;;4.73;1.13;;;8.50;99.90;;;;;;4973776;28;20234;-62
2022/01/03 02:10:44;;;;;;;2.90;1.00;;;8.50;99.90;;;;;;4972639;28;20250;-62
2022/01/03 02:13:22;;;;;;;3.93;1.30;;;8.40;99.90;;;;;;4965583;28;20243;-62
2022/01/03 02:15:59;;;;;;;2.77;0.80;;;8.40;99.90;;;;;;4961939;28;20572;-62
2022/01/03 02:18:29;;;;;;;4.00;0.97;;;8.40;99.90;;;;;;4973666;28;20241;-62
2022/01/03 02:20:59;;;;;;;4.17;0.73;;;8.40;99.90;;;;;;4972908;28;20718;-61
2022/01/03 02:23:28;;;;;;;5.17;0.83;;;8.40;99.90;;;;;;4971317;28;20234;-62
2022/01/03 02:25:59;;;;;;;4.57;0.90;;;8.40;99.90;;;;;;4962235;28;20234;-62
2022/01/03 02:28:27;;;;;;;3.07;0.63;;;8.30;99.90;;;;;;4972717;28;20630;-62
2022/01/03 02:30:58;;;;;;;7.07;0.90;;;8.40;99.90;;;;;;4973241;28;20234;-61
2022/01/03 02:33:26;;;;;;;3.43;1.00;;;8.40;99.90;;;;;;4973245;28;20304;-62
2022/01/03 02:35:57;;;;;;;3.80;1.00;;;8.40;99.90;;;;;;4973111;28;20242;-61
2022/01/03 02:38:29;;;;;;;4.70;1.13;;;8.40;99.90;;;;;;4988857;28;20230;-61
2022/01/03 02:41:00;;;;;;;4.30;1.27;;;8.40;99.90;;;;;;4974475;28;20290;-61
2022/01/03 02:43:28;;;;;;;3.87;1.77;;;8.40;99.90;;;;;;4974541;28;20231;-62
2022/01/03 02:45:59;;;;;;;3.93;1.73;;;8.40;99.90;;;;;;4973264;28;20235;-61
2022/01/03 02:48:30;;;;;;;4.23;1.67;;;8.40;99.90;;;;;;4971931;28;20238;-62
2022/01/03 02:51:01;;;;;;;4.80;1.77;;;8.40;99.90;;;;;;4974069;28;20231;-62
2022/01/03 02:53:31;;;;;;;6.43;1.57;;;8.40;99.90;;;;;;4972945;28;20628;-63
2022/01/03 02:56:03;;;;;;;7.57;1.83;;;8.40;99.90;;;;;;4972574;28;20366;-62
2022/01/03 02:58:31;;;;;;;7.57;1.87;;;8.40;99.90;;;;;;4973451;28;20235;-62
2022/01/03 03:01:00;;;;;;;4.57;1.50;;;8.40;99.90;;;;;;4972516;28;20235;-62
2022/01/03 03:03:39;;;;;;;6.47;1.60;;;8.40;99.90;;;;;;4964804;28;20240;-61
2022/01/03 03:06:08;;;;;;;6.93;1.60;;;8.40;99.90;;;;;;4972697;28;20243;-61
2022/01/03 03:08:37;;;;;;;7.23;1.70;;;8.40;99.90;;;;;;4971887;28;20321;-61
2022/01/03 03:11:05;;;;;;;5.30;1.70;;;8.40;99.90;;;;;;4973717;28;20242;-62
2022/01/03 03:13:34;;;;;;;7.97;1.93;;;8.40;99.90;;;;;;4973591;28;20281;-61
2022/01/03 03:16:04;;;;;;;5.70;2.13;;;8.40;99.90;;;;;;4972540;28;20242;-61
2022/01/03 03:18:33;;;;;;;6.53;2.00;;;8.50;99.90;;;;;;4971112;28;20235;-61
2022/01/03 03:21:01;;;;;;;8.83;2.30;;;8.50;99.90;;;;;;4973345;28;20273;-62
2022/01/03 03:23:29;;;;;;;7.80;2.37;;;8.50;99.90;;;;;;4972304;28;20301;-63
2022/01/03 03:25:59;;;;;;;10.77;2.77;;;8.50;99.90;;;;;;4972769;28;20602;-61
2022/01/03 03:28:28;;;;;;;9.53;2.57;;;8.50;99.90;;;;;;4973077;28;20238;-62
2022/01/03 03:31:00;;;;;;;9.03;2.90;;;8.50;99.90;;;;;;4971710;28;20601;-62
2022/01/03 03:33:38;;;;;;;4.77;2.43;;;8.50;99.90;;;;;;4972309;28;20317;-61
2022/01/03 03:36:07;;;;;;;6.93;2.60;;;8.50;99.90;;;;;;4972142;28;20249;-61
2022/01/03 03:38:36;;;;;;;8.57;2.67;;;8.50;99.90;;;;;;4972429;28;20239;-61
2022/01/03 03:41:10;;;;;;;9.10;2.90;;;8.50;99.90;;;;;;4971793;28;20256;-62
2022/01/03 03:43:44;;;;;;;10.27;2.60;;;8.50;99.90;;;;;;4972052;28;20266;-62
2022/01/03 03:46:12;;;;;;;9.13;2.77;;;8.60;99.90;;;;;;4972672;28;20269;-61
2022/01/03 03:48:41;;;;;;;9.53;2.80;;;8.60;99.90;;;;;;4964133;28;20237;-61
2022/01/03 03:51:12;;;;;;;9.30;2.60;;;8.60;99.90;;;;;;4971562;28;20572;-61
2022/01/03 03:53:41;;;;;;;7.63;2.27;;;8.60;99.90;;;;;;4971568;28;20607;-62
2022/01/03 03:56:12;;;;;;;10.10;2.50;;;8.60;99.90;;;;;;4970718;28;20639;-62
2022/01/03 03:58:41;;;;;;;7.93;2.77;;;8.60;99.90;;;;;;4971463;28;20245;-61
2022/01/03 04:01:10;;;;;;;15.47;2.87;;;8.60;99.90;;;;;;4971593;28;20234;-61
2022/01/03 04:03:47;;;;;;;9.93;2.63;;;8.60;99.90;;;;;;4971505;28;20230;-62
2022/01/03 04:06:17;;;;;;;11.43;2.40;;;8.60;99.90;;;;;;4970796;28;20289;-61
2022/01/03 04:08:48;;;;;;;12.47;2.93;;;8.60;99.90;;;;;;4971298;28;20691;-62
2022/01/03 04:11:18;;;;;;;9.80;2.00;;;8.60;99.90;;;;;;4973336;28;20244;-61
2022/01/03 04:13:47;;;;;;;8.40;2.33;;;8.70;99.90;;;;;;4952182;28;20724;-62
2022/01/03 04:16:16;;;;;;;13.90;2.63;;;8.70;99.90;;;;;;4961966;28;20254;-62
2022/01/03 04:18:44;;;;;;;13.00;3.10;;;8.70;99.90;;;;;;4966839;28;20239;-62
2022/01/03 04:21:13;;;;;;;12.10;2.43;;;8.70;99.90;;;;;;4962112;28;20769;-62
2022/01/03 04:23:41;;;;;;;12.97;2.77;;;8.70;99.90;;;;;;4971316;28;20258;-62
2022/01/03 04:26:11;;;;;;;11.47;3.00;;;8.70;99.90;;;;;;4971155;28;20256;-61
2022/01/03 04:28:41;;;;;;;9.60;2.77;;;8.70;99.90;;;;;;4972330;28;20281;-62
2022/01/03 04:31:09;;;;;;;13.93;3.03;;;8.70;99.90;;;;;;4970614;28;20515;-62
2022/01/03 04:33:39;;;;;;;16.37;2.90;;;8.70;99.90;;;;;;4971020;28;20270;-61
2022/01/03 04:36:07;;;;;;;9.30;2.77;;;8.70;99.90;;;;;;4971631;28;20241;-61
2022/01/03 04:38:35;;;;;;;12.30;2.47;;;8.70;99.90;;;;;;4967640;28;20334;-62
2022/01/03 04:41:04;;;;;;;16.60;2.77;;;8.70;99.90;;;;;;4960748;28;20622;-61
2022/01/03 04:43:33;;;;;;;14.23;2.50;;;8.70;99.90;;;;;;4972473;28;20703;-62
2022/01/03 04:46:04;;;;;;;14.43;3.70;;;8.70;99.90;;;;;;4970293;28;20230;-61
2022/01/03 04:48:32;;;;;;;15.17;3.30;;;8.70;99.90;;;;;;4968055;28;20242;-62
2022/01/03 04:51:02;;;;;;;11.50;2.43;;;8.70;99.90;;;;;;4963413;28;20239;-61
2022/01/03 04:53:30;;;;;;;14.43;3.13;;;8.70;99.90;;;;;;4972069;28;20715;-62
2022/01/03 04:55:58;;;;;;;11.57;2.70;;;8.80;99.90;;;;;;4970232;28;20237;-61
2022/01/03 04:58:26;;;;;;;15.33;2.77;;;8.70;99.90;;;;;;4968437;28;20239;-62
2022/01/03 05:00:55;;;;;;;20.17;3.70;;;8.80;99.90;;;;;;4960606;28;20282;-62
2022/01/03 05:03:25;;;;;;;14.13;3.20;;;8.80;99.90;;;;;;4970776;28;20230;-61
2022/01/03 05:05:53;;;;;;;16.07;2.77;;;8.70;99.90;;;;;;4969820;28;20757;-61
2022/01/03 05:08:21;;;;;;;22.70;3.30;;;8.80;99.90;;;;;;4969363;28;20235;-62
2022/01/03 05:10:52;;;;;;;14.40;3.37;;;8.80;99.90;;;;;;4961997;28;20321;-61
2022/01/03 05:13:20;;;;;;;15.37;3.10;;;8.80;99.90;;;;;;4970898;28;20285;-61
2022/01/03 05:15:49;;;;;;;13.70;3.00;;;8.80;99.90;;;;;;4969790;28;20269;-62
2022/01/03 05:18:17;;;;;;;13.87;3.53;;;8.80;99.90;;;;;;4975095;28;20253;-62
2022/01/03 05:20:48;;;;;;;14.33;2.77;;;8.80;99.90;;;;;;4965603;28;20245;-62
2022/01/03 05:23:16;;;;;;;18.30;3.27;;;8.80;99.90;;;;;;4972040;28;20243;-61
2022/01/03 05:25:46;;;;;;;15.73;2.60;;;8.80;99.90;;;;;;4971077;28;20246;-62
2022/01/03 05:28:14;;;;;;;14.43;3.20;;;8.80;99.90;;;;;;4971600;28;20797;-62
2022/01/03 05:30:44;;;;;;;17.23;3.27;;;8.80;99.90;;;;;;4960395;28;20230;-61
2022/01/03 05:33:12;;;;;;;16.90;3.20;;;8.80;99.90;;;;;;4971903;28;20234;-61
2022/01/03 05:35:41;;;;;;;16.00;3.30;;;8.80;99.90;;;;;;4969416;28;20238;-63
2022/01/03 05:38:11;;;;;;;18.60;3.27;;;8.80;99.90;;;;;;4973593;28;20268;-62
2022/01/03 05:40:40;;;;;;;14.07;2.80;;;8.80;99.90;;;;;;4960532;28;20687;-62
2022/01/03 05:43:10;;;;;;;22.70;3.40;;;8.80;99.90;;;;;;4974196;28;20235;-62
2022/01/03 05:45:39;;;;;;;14.97;3.43;;;8.80;99.90;;;;;;4973702;28;20261;-64
2022/01/03 05:48:07;;;;;;;15.23;3.13;;;8.80;99.90;;;;;;4986942;28;20239;-62
2022/01/03 05:50:36;;;;;;;16.47;3.80;;;8.80;99.90;;;;;;4973593;28;20606;-61
2022/01/03 05:53:04;;;;;;;13.97;3.10;;;8.80;99.90;;;;;;4974193;28;20289;-62
2022/01/03 05:55:33;;;;;;;16.97;3.13;;;8.80;99.90;;;;;;4974189;28;20239;-62
2022/01/03 05:58:03;;;;;;;16.57;2.97;;;8.80;99.90;;;;;;4973827;28;20314;-61
2022/01/03 06:00:33;;;;;;;20.63;3.07;;;8.80;99.90;;;;;;4959837;28;20313;-61
2022/01/03 06:03:02;;;;;;;16.93;3.60;;;8.80;99.90;;;;;;4975175;28;20830;-62
2022/01/03 06:05:53;;;;;;;19.33;3.00;;;8.80;99.90;;;;;;4973827;28;20286;-61
2022/01/03 06:08:22;;;;;;;17.27;3.17;;;8.80;99.90;;;;;;4972767;28;20639;-61
2022/01/03 06:10:52;;;;;;;20.77;3.90;;;8.80;99.90;;;;;;4972921;28;20234;-61
2022/01/03 06:13:25;;;;;;;18.87;3.50;;;8.80;99.90;;;;;;4954581;28;20243;-62
2022/01/03 06:15:58;;;;;;;17.27;3.00;;;8.80;99.90;;;;;;4958979;28;20240;-62
2022/01/03 06:18:29;;;;;;;20.90;3.20;;;8.80;99.90;;;;;;4971860;28;20256;-62
2022/01/03 06:21:04;;;;;;;18.77;3.23;;;8.80;99.90;;;;;;4972900;28;20321;-62
2022/01/03 06:23:37;;;;;;;20.83;3.50;;;8.90;99.90;;;;;;4972945;28;20247;-63
2022/01/03 06:26:06;;;;;;;21.33;3.40;;;8.90;99.90;;;;;;4968058;28;20626;-62
2022/01/03 06:28:41;;;;;;;22.53;3.93;;;8.80;99.90;;;;;;4972784;28;20227;-62
2022/01/03 06:31:11;;;;;;;22.83;3.60;;;8.80;99.90;;;;;;4970457;28;20675;-62
2022/01/03 06:33:40;;;;;;;20.63;3.67;;;8.80;99.90;;;;;;4972001;28;20277;-62
2022/01/03 06:36:09;;;;;;;16.97;3.30;;;8.90;99.90;;;;;;4992001;28;20293;-62
2022/01/03 06:38:37;;;;;;;23.07;3.83;;;8.90;99.90;;;;;;4972588;28;20245;-62
2022/01/03 06:41:09;;;;;;;16.10;3.17;;;8.80;99.90;;;;;;4972497;28;20242;-61
2022/01/03 06:43:37;;;;;;;18.93;3.03;;;8.80;99.90;;;;;;4973144;28;20326;-62
2022/01/03 06:46:06;;;;;;;22.10;4.07;;;8.80;99.90;;;;;;4972352;28;20242;-62
2022/01/03 06:48:35;;;;;;;20.70;3.53;;;8.80;99.90;;;;;;4969021;28;20254;-62
2022/01/03 06:51:03;;;;;;;16.27;3.30;;;8.80;99.90;;;;;;4965687;28;20313;-61
2022/01/03 06:53:32;;;;;;;13.90;3.30;;;8.80;99.90;;;;;;4953654;28;20627;-62
2022/01/03 06:56:00;;;;;;;20.53;3.60;;;8.80;99.90;;;;;;4963666;28;20754;-62
2022/01/03 06:58:32;;;;;;;17.57;3.60;;;8.80;99.90;;;;;;4976955;28;20245;-62
2022/01/03 07:01:02;;;;;;;22.43;3.77;;;8.80;99.90;;;;;;4971643;28;20246;-62
2022/01/03 07:03:30;;;;;;;19.90;3.83;;;8.80;99.90;;;;;;4966210;28;20321;-63
2022/01/03 07:05:58;;;;;;;22.47;3.90;;;8.80;99.90;;;;;;4973070;28;20230;-62
2022/01/03 07:08:26;;;;;;;23.50;3.87;;;8.80;99.90;;;;;;4973308;28;20698;-62
2022/01/03 07:10:54;;;;;;;23.07;3.47;;;8.80;99.90;;;;;;4971584;28;20231;-64
2022/01/03 07:13:30;;;;;;;23.00;3.80;;;8.80;99.90;;;;;;4966049;28;20603;-62
2022/01/03 07:18:57;;;;;;;24.10;4.40;;;8.80;99.90;;;;;;4968890;28;20271;-62
2022/01/03 07:21:25;;;;;;;20.23;3.73;;;8.80;99.90;;;;;;4971898;28;20238;-62
2022/01/03 07:23:54;;;;;;;18.50;3.60;;;8.80;99.90;;;;;;4973804;28;20695;-62
2022/01/03 07:26:23;;;;;;;26.30;3.87;;;8.80;99.90;;;;;;4972770;28;20588;-61
2022/01/03 07:28:51;;;;;;;24.03;4.10;;;8.80;99.90;;;;;;4968566;28;20322;-62
2022/01/03 07:31:21;;;;;;;20.40;3.70;;;8.80;99.90;;;;;;4968318;28;20297;-61
2022/01/03 07:33:49;;;;;;;27.23;4.53;;;8.80;99.90;;;;;;4972189;28;20238;-61
2022/01/03 07:36:17;;;;;;;24.63;3.93;;;8.80;99.90;;;;;;4972946;28;20269;-61
2022/01/03 07:38:46;;;;;;;20.70;3.80;;;8.80;99.90;;;;;;4973383;28;20615;-61
2022/01/03 07:41:17;;;;;;;26.00;4.00;;;8.80;99.90;;;;;;4973221;28;20230;-61
2022/01/03 07:43:45;;;;;;;22.17;3.40;;;8.80;99.90;;;;;;4971620;28;20609;-61
2022/01/03 07:46:13;;;;;;;20.80;3.90;;;8.80;99.90;;;;;;4973070;28;20234;-61
2022/01/03 07:48:44;;;;;;;22.87;3.90;;;8.80;99.90;;;;;;4973062;28;20265;-62
2022/01/03 07:51:12;;;;;;;18.37;3.83;;;8.80;99.90;;;;;;4972821;28;20238;-61
2022/01/03 07:53:42;;;;;;;15.27;3.70;;;8.80;99.90;;;;;;4969833;28;20227;-61
2022/01/03 07:56:10;;;;;;;22.23;3.90;;;8.80;99.90;;;;;;4972688;28;20254;-61
2022/01/03 07:58:39;;;;;;;24.17;3.73;;;8.70;99.90;;;;;;4972608;28;20267;-62
2022/01/03 08:01:07;;;;;;;27.73;5.00;;;8.70;99.90;;;;;;4970974;28;20529;-61
2022/01/03 08:03:35;;;;;;;21.20;4.17;;;8.70;99.90;;;;;;4971012;28;20246;-62
2022/01/03 08:06:10;;;;;;;20.20;4.23;;;8.70;99.90;;;;;;4971316;28;20521;-61
2022/01/03 08:08:39;;;;;;;20.70;3.90;;;8.60;99.90;;;;;;4970198;28;20235;-62
2022/01/03 08:11:07;;;;;;;19.20;3.57;;;8.60;99.90;;;;;;4972274;28;20226;-62
2022/01/03 08:13:36;;;;;;;22.10;4.00;;;8.60;99.90;;;;;;4972144;28;20293;-62
2022/01/03 08:16:04;;;;;;;19.03;3.27;;;8.60;99.90;;;;;;4971883;28;20234;-62
2022/01/03 08:18:33;;;;;;;22.03;3.90;;;8.60;99.90;;;;;;4961788;28;20231;-62
2022/01/03 08:21:01;;;;;;;24.27;3.97;;;8.70;99.90;;;;;;4960657;28;20269;-61
2022/01/03 08:23:32;;;;;;;17.20;3.80;;;8.60;99.90;;;;;;4972335;28;20246;-62
2022/01/03 08:26:00;;;;;;;16.17;3.37;;;8.60;99.90;;;;;;4972146;28;20238;-63
2022/01/03 08:28:28;;;;;;;22.70;4.20;;;8.60;99.90;;;;;;4971539;28;20326;-61
2022/01/03 08:30:56;;;;;;;21.07;4.33;;;8.60;99.90;;;;;;4969613;28;20235;-62
2022/01/03 08:33:24;;;;;;;19.33;3.93;;;8.60;99.90;;;;;;4972342;28;20259;-62
2022/01/03 08:35:52;;;;;;;19.50;3.73;;;8.70;99.90;;;;;;4971102;28;20238;-62
2022/01/03 08:38:21;;;;;;;20.93;3.57;;;8.60;99.90;;;;;;4971926;28;20245;-61
2022/01/03 08:40:51;;;;;;;18.30;3.67;;;8.70;99.90;;;;;;4971723;28;20230;-61
2022/01/03 08:43:19;;;;;;;18.43;4.77;;;8.60;99.90;;;;;;4972110;28;20245;-61
2022/01/03 08:45:47;;;;;;;16.03;3.03;;;8.70;99.90;;;;;;4971276;28;20239;-61
2022/01/03 08:48:15;;;;;;;20.97;3.60;;;8.70;99.90;;;;;;4956078;28;20245;-62
2022/01/03 08:50:44;;;;;;;25.77;4.73;;;8.70;99.90;;;;;;4962192;28;20293;-61
2022/01/03 08:53:13;;;;;;;16.77;3.60;;;8.70;99.90;;;;;;4971045;28;20230;-62
2022/01/03 08:55:42;;;;;;;21.27;4.50;;;8.70;99.90;;;;;;4971121;28;20234;-62
2022/01/03 08:58:12;;;;;;;22.27;3.90;;;8.70;99.90;;;;;;4971908;28;20277;-61
2022/01/03 09:00:40;;;;;;;24.00;4.43;;;8.80;99.90;;;;;;4969770;28;20285;-61
2022/01/03 09:03:08;;;;;;;20.40;4.13;;;8.80;99.90;;;;;;4971837;28;20241;-62
2022/01/03 09:05:37;;;;;;;20.23;4.20;;;8.80;99.90;;;;;;4971752;28;20292;-62
2022/01/03 09:08:06;;;;;;;22.93;4.00;;;8.80;99.90;;;;;;4963338;28;20687;-62
2022/01/03 09:10:34;;;;;;;21.23;3.57;;;8.70;99.90;;;;;;4971333;28;20238;-61
2022/01/03 09:13:02;;;;;;;24.10;3.87;;;8.70;99.90;;;;;;4964989;28;20240;-61
2022/01/03 09:15:32;;;;;;;15.63;3.50;;;8.70;99.90;;;;;;4956972;28;20597;-63
2022/01/03 09:18:00;;;;;;;18.10;3.67;;;8.80;99.90;;;;;;4970688;28;20266;-63
2022/01/03 09:20:28;;;;;;;16.27;3.40;;;8.80;99.90;;;;;;4971740;28;20306;-61
2022/01/03 09:23:06;;;;;;;23.20;3.97;;;8.70;99.90;;;;;;4971903;28;20230;-62
2022/01/03 09:31:08;;;;;;;21.27;3.73;;;8.80;99.90;;;;;;4969086;28;20314;-61
2022/01/03 09:33:36;;;;;;;20.67;4.63;;;8.80;99.90;;;;;;4971178;28;20239;-62
2022/01/03 09:36:04;;;;;;;17.27;3.97;;;8.80;99.90;;;;;;4968901;28;20670;-62
2022/01/03 09:38:34;;;;;;;27.07;5.33;;;8.80;99.90;;;;;;4971251;28;20695;-62
2022/01/03 09:41:04;;;;;;;22.27;5.37;;;8.90;99.90;;;;;;4971143;28;20261;-61
2022/01/03 09:43:40;;;;;;;21.03;3.93;;;8.90;99.90;;;;;;4971122;28;20242;-62
2022/01/03 09:46:11;;;;;;;21.07;4.30;;;8.90;99.90;;;;;;4971058;28;20590;-61
2022/01/03 09:48:43;;;;;;;18.33;4.00;;;8.90;99.90;;;;;;4972520;28;20719;-61
2022/01/03 09:51:12;;;;;;;20.93;3.80;;;8.90;99.90;;;;;;4968831;28;20333;-61
2022/01/03 09:53:41;;;;;;;23.00;4.30;;;8.90;99.90;;;;;;4970965;28;20237;-61
2022/01/03 09:56:09;;;;;;;20.37;4.50;;;8.90;99.90;;;;;;4966686;28;20277;-62
2022/01/03 09:58:37;;;;;;;26.83;4.23;;;8.90;99.90;;;;;;4970984;28;20241;-61
2022/01/03 10:01:06;;;;;;;16.57;3.47;;;9.00;99.90;;;;;;4970982;28;20289;-61
2022/01/03 10:03:37;;;;;;;21.03;4.30;;;9.00;99.90;;;;;;4968581;28;20235;-62
2022/01/03 10:06:05;;;;;;;20.40;4.27;;;9.00;99.90;;;;;;4970870;28;20262;-62
2022/01/03 10:08:33;;;;;;;18.50;3.90;;;9.00;99.90;;;;;;4968352;28;20261;-62
2022/01/03 10:11:01;;;;;;;21.70;4.40;;;9.00;99.90;;;;;;4970036;28;20234;-62
2022/01/03 10:13:29;;;;;;;16.87;4.03;;;9.00;99.90;;;;;;4970061;28;20643;-61
2022/01/03 10:15:57;;;;;;;16.20;3.30;;;9.00;99.90;;;;;;4968397;28;20573;-61
2022/01/03 10:18:26;;;;;;;21.07;3.73;;;9.10;99.90;;;;;;4970891;28;20239;-62
2022/01/03 10:20:56;;;;;;;24.30;4.10;;;9.10;99.90;;;;;;4969917;28;20281;-62
2022/01/03 10:23:24;;;;;;;24.43;4.03;;;9.00;99.90;;;;;;4971157;28;20272;-62
2022/01/03 10:25:53;;;;;;;20.23;4.17;;;9.00;99.90;;;;;;4974111;28;20246;-61
2022/01/03 10:28:23;;;;;;;18.10;4.03;;;9.00;99.90;;;;;;4974421;28;20231;-61
2022/01/03 10:30:52;;;;;;;23.87;4.43;;;9.00;99.90;;;;;;4974149;28;20599;-62
2022/01/03 10:33:22;;;;;;;21.67;3.93;;;9.00;99.90;;;;;;4972004;28;20252;-61
2022/01/03 10:35:52;;;;;;;19.47;4.00;;;9.10;99.90;;;;;;4973991;28;21347;-61
2022/01/03 10:38:37;;;;;;;24.97;4.70;;;9.00;99.90;;;;;;4971990;28;20297;-61
2022/01/03 10:41:14;;;;;;;25.57;3.73;;;9.10;99.90;;;;;;4972020;28;20235;-62
2022/01/03 10:43:43;;;;;;;26.93;4.57;;;9.10;99.90;;;;;;4974072;28;20239;-61
2022/01/03 10:46:19;;;;;;;26.03;4.20;;;9.10;99.90;;;;;;4973918;28;20230;-61
2022/01/03 10:48:49;;;;;;;26.00;4.57;;;9.00;99.90;;;;;;4973789;28;20328;-61
2022/01/03 10:51:25;;;;;;;24.40;4.70;;;9.00;99.90;;;;;;4973783;28;20227;-61
2022/01/03 10:53:56;;;;;;;21.27;4.17;;;9.10;99.90;;;;;;4977215;28;20246;-62
2022/01/03 10:56:33;;;;;;;18.23;3.60;;;9.20;99.90;;;;;;4976366;28;20253;-61
2022/01/03 10:59:20;;;;;;;23.03;4.27;;;9.30;99.90;;;;;;4972539;28;20246;-62
2022/01/03 11:01:52;;;;;;;23.83;4.63;;;9.40;99.90;;;;;;4973361;28;20716;-61
2022/01/03 11:04:32;;;;;;;19.20;4.03;;;9.50;99.90;;;;;;4973749;28;20246;-62
2022/01/03 11:10:43;;;;;;;21.67;4.30;;;9.50;99.90;;;;;;4972187;28;20238;-61
2022/01/03 11:13:19;;;;;;;17.87;4.03;;;9.50;99.90;;;;;;4969300;28;20238;-61
2022/01/03 11:15:53;;;;;;;23.00;4.10;;;9.50;99.90;;;;;;4967240;28;20255;-61
2022/01/03 11:18:24;;;;;;;23.10;4.00;;;9.50;99.90;;;;;;4973583;28;20281;-62
2022/01/03 11:21:04;;;;;;;20.10;3.63;;;9.60;99.90;;;;;;4971174;28;20234;-61
2022/01/03 11:23:33;;;;;;;19.90;4.17;;;9.60;99.90;;;;;;4973441;28;20778;-62
2022/01/03 11:26:07;;;;;;;18.03;4.03;;;9.70;99.90;;;;;;4973085;28;20234;-62
2022/01/03 11:28:36;;;;;;;23.00;5.60;;;9.80;99.90;;;;;;4973173;28;20621;-61
2022/01/03 11:31:05;;;;;;;19.40;3.87;;;9.90;99.90;;;;;;4973075;28;20703;-61
2022/01/03 11:33:35;;;;;;;23.97;3.83;;;10.00;99.90;;;;;;4973006;28;20266;-61
2022/01/03 11:36:25;;;;;;;22.77;4.47;;;10.10;99.90;;;;;;4971284;28;20238;-62
2022/01/03 11:38:56;;;;;;;13.53;3.13;;;10.20;99.90;;;;;;4973318;28;20256;-62
2022/01/03 11:41:26;;;;;;;17.73;3.73;;;10.20;99.90;;;;;;4973049;28;20263;-62
2022/01/03 11:43:55;;;;;;;18.07;3.87;;;10.20;99.90;;;;;;4972971;28;20241;-61
2022/01/03 11:46:24;;;;;;;18.23;3.70;;;10.30;99.90;;;;;;4972826;28;20317;-61
2022/01/03 11:48:52;;;;;;;18.87;3.60;;;10.30;99.90;;;;;;4970405;28;20324;-61
2022/01/03 11:51:22;;;;;;;16.87;3.17;;;10.30;99.90;;;;;;4972687;28;20366;-61
2022/01/03 11:53:51;;;;;;;20.27;4.00;;;10.30;99.90;;;;;;4970317;28;20584;-62
2022/01/03 11:56:22;;;;;;;17.73;3.43;;;10.30;99.90;;;;;;4972400;28;20259;-62
2022/01/03 11:59:01;;;;;;;17.97;3.53;;;10.30;99.90;;;;;;4970051;28;20247;-62
2022/01/03 12:04:23;;;;;;;14.87;3.20;;;10.30;99.90;;;;;;4972073;28;20241;-61
2022/01/03 12:07:04;;;;;;;16.50;3.40;;;10.30;99.90;;;;;;4983777;28;20235;-61
2022/01/03 12:09:34;;;;;;;18.80;4.07;;;10.30;99.90;;;;;;4955278;28;20700;-61
2022/01/03 12:12:03;;;;;;;20.40;3.83;;;10.20;99.90;;;;;;4972813;28;20598;-62
2022/01/03 12:14:43;;;;;;;21.33;3.80;;;10.30;99.90;;;;;;4972844;28;20774;-63
2022/01/03 12:17:13;;;;;;;19.33;3.30;;;10.30;99.90;;;;;;4972686;28;20355;-61
2022/01/03 12:19:43;;;;;;;23.73;3.97;;;10.20;99.90;;;;;;4972785;28;20235;-61
2022/01/03 12:22:17;;;;;;;18.97;3.80;;;10.20;99.90;;;;;;4972291;28;20239;-61
2022/01/03 12:24:51;;;;;;;18.10;3.40;;;10.20;99.90;;;;;;4972051;28;20257;-61
2022/01/03 12:27:31;;;;;;;15.67;3.33;;;10.30;99.90;;;;;;4971852;28;20267;-62
2022/01/03 12:30:23;;;;;;;16.93;3.70;;;10.30;99.90;;;;;;4972622;28;20258;-62
2022/01/03 12:33:19;;;;;;;21.47;3.37;;;10.30;99.90;;;;;;4972135;28;20652;-61
2022/01/03 12:35:49;;;;;;;21.07;3.17;;;10.30;99.90;;;;;;4971429;28;20281;-61
2022/01/03 12:38:30;;;;;;;16.23;3.53;;;10.20;99.90;;;;;;4969230;28;20589;-62
2022/01/03 12:41:01;;;;;;;16.97;3.37;;;10.10;99.90;;;;;;4969279;28;20597;-62
2022/01/03 12:43:51;;;;;;;17.70;2.97;;;10.10;99.90;;;;;;4971461;28;20262;-61
2022/01/03 12:46:24;;;;;;;17.13;3.10;;;10.10;99.90;;;;;;4967312;28;20285;-61
2022/01/03 12:48:55;;;;;;;16.13;3.20;;;10.00;99.90;;;;;;4971500;28;20242;-62
2022/01/03 12:51:35;;;;;;;18.67;2.90;;;10.00;99.90;;;;;;4971655;28;20266;-62
2022/01/03 12:54:07;;;;;;;14.43;2.87;;;10.00;99.90;;;;;;4969100;28;20240;-62
2022/01/03 12:56:35;;;;;;;12.43;3.00;;;9.90;99.90;;;;;;4971279;28;20306;-61
2022/01/03 12:59:15;;;;;;;21.07;3.90;;;9.80;99.90;;;;;;4969198;28;20711;-62
2022/01/03 13:01:44;;;;;;;13.73;2.53;;;9.80;99.90;;;;;;4968937;28;20234;-61
2022/01/03 13:04:24;;;;;;;16.17;2.87;;;9.80;99.90;;;;;;4972101;28;20245;-62
2022/01/03 13:07:02;;;;;;;17.37;3.93;;;9.80;99.90;;;;;;4971895;28;20238;-62
2022/01/03 13:09:30;;;;;;;14.30;3.03;;;9.70;99.90;;;;;;4971700;28;20326;-61
2022/01/03 13:12:05;;;;;;;18.97;3.50;;;9.70;99.90;;;;;;4971928;28;20231;-62
2022/01/03 13:14:33;;;;;;;15.70;3.17;;;9.70;99.90;;;;;;4971729;28;20238;-62
2022/01/03 13:17:04;;;;;;;17.67;4.03;;;9.70;99.90;;;;;;4973003;28;20750;-62
2022/01/03 13:19:35;;;;;;;14.77;3.37;;;9.70;99.90;;;;;;4971922;28;20723;-61
2022/01/03 13:22:06;;;;;;;13.73;2.73;;;9.80;99.90;;;;;;4971087;28;20234;-62
2022/01/03 13:24:36;;;;;;;15.60;3.37;;;9.80;99.90;;;;;;4968871;28;20241;-62